sensor_id;sensor_type;location;lat;lon;timestamp;pressure;altitude;pressure_sealevel;temperature;humidity
35151;BME280;55720;51.972;4.624;2022-07-10T00:01:00;102628.56;;;12.87;100.00
35151;BME280;55720;51.972;4.624;2022-07-10T00:03:25;102618.56;;;12.91;100.00
35151;BME280;55720;51.972;4.624;2022-07-10T00:05:51;102611.28;;;12.95;100.00
35151;BME280;55720;51.972;4.624;2022-07-10T00:08:16;102614.56;;;12.97;100.00
35151;BME280;55720;51.972;4.624;2022-07-10T00:10:41;102609.03;;;12.97;100.00
35151;BME280;55720;51.972;4.624;2022-07-10T00:13:07;102616.00;;;12.95;100.00
35151;BME280;55720;51.972;4.624;2022-07-10T00:15:32;102608.63;;;12.90;100.00
35151;BME280;55720;51.972;4.624;2022-07-10T00:17:58;102606.50;;;12.87;100.00
35151;BME280;55720;51.972;4.624;2022-07-10T00:20:23;102602.09;;;12.86;100.00
35151;BME280;55720;51.972;4.624;2022-07-10T00:22:49;102601.06;;;12.82;100.00
35151;BME280;55720;51.972;4.624;2022-07-10T00:25:14;102602.59;;;12.74;100.00
35151;BME280;55720;51.972;4.624;2022-07-10T00:27:41;102606.16;;;12.75;100.00
35151;BME280;55720;51.972;4.624;2022-07-10T00:30:08;102601.25;;;12.72;100.00
35151;BME280;55720;51.972;4.624;2022-07-10T00:32:34;102592.03;;;12.63;100.00
35151;BME280;55720;51.972;4.624;2022-07-10T00:34:59;102591.75;;;12.64;100.00
35151;BME280;55720;51.972;4.624;2022-07-10T00:37:27;102591.63;;;12.56;100.00
35151;BME280;55720;51.972;4.624;2022-07-10T00:39:52;102589.81;;;12.51;100.00
35151;BME280;55720;51.972;4.624;2022-07-10T00:42:18;102586.72;;;12.53;100.00
35151;BME280;55720;51.972;4.624;2022-07-10T00:44:43;102580.28;;;12.44;100.00
35151;BME280;55720;51.972;4.624;2022-07-10T00:47:10;102567.63;;;12.43;100.00
35151;BME280;55720;51.972;4.624;2022-07-10T00:49:38;102567.56;;;12.48;100.00
35151;BME280;55720;51.972;4.624;2022-07-10T00:52:07;102560.91;;;12.49;100.00
35151;BME280;55720;51.972;4.624;2022-07-10T00:54:34;102560.69;;;12.45;100.00
35151;BME280;55720;51.972;4.624;2022-07-10T00:56:59;102565.50;;;12.40;100.00
35151;BME280;55720;51.972;4.624;2022-07-10T00:59:26;102569.34;;;12.39;100.00
35151;BME280;55720;51.972;4.624;2022-07-10T01:01:52;102568.84;;;12.37;100.00
35151;BME280;55720;51.972;4.624;2022-07-10T01:04:18;102565.06;;;12.32;100.00
35151;BME280;55720;51.972;4.624;2022-07-10T01:06:43;102570.56;;;12.32;100.00
35151;BME280;55720;51.972;4.624;2022-07-10T01:09:09;102568.44;;;12.29;100.00
35151;BME280;55720;51.972;4.624;2022-07-10T01:11:36;102568.31;;;12.34;100.00
35151;BME280;55720;51.972;4.624;2022-07-10T01:14:03;102569.34;;;12.39;100.00
35151;BME280;55720;51.972;4.624;2022-07-10T01:16:29;102572.72;;;12.36;100.00
35151;BME280;55720;51.972;4.624;2022-07-10T01:18:55;102565.06;;;12.32;100.00
35151;BME280;55720;51.972;4.624;2022-07-10T01:23:53;102562.53;;;12.36;100.00
35151;BME280;55720;51.972;4.624;2022-07-10T01:26:20;102560.59;;;12.37;100.00
35151;BME280;55720;51.972;4.624;2022-07-10T01:28:48;102559.78;;;12.36;100.00
35151;BME280;55720;51.972;4.624;2022-07-10T01:31:14;102569.75;;;12.32;100.00
35151;BME280;55720;51.972;4.624;2022-07-10T01:33:40;102575.47;;;12.36;100.00
35151;BME280;55720;51.972;4.624;2022-07-10T01:36:06;102574.78;;;12.44;100.00
35151;BME280;55720;51.972;4.624;2022-07-10T01:38:32;102571.22;;;12.43;100.00
35151;BME280;55720;51.972;4.624;2022-07-10T01:40:57;102567.34;;;12.44;100.00
35151;BME280;55720;51.972;4.624;2022-07-10T01:43:23;102577.53;;;12.44;100.00
35151;BME280;55720;51.972;4.624;2022-07-10T01:45:48;102565.56;;;12.34;100.00
35151;BME280;55720;51.972;4.624;2022-07-10T01:48:14;102556.66;;;12.24;100.00
35151;BME280;55720;51.972;4.624;2022-07-10T01:50:39;102566.84;;;12.23;100.00
35151;BME280;55720;51.972;4.624;2022-07-10T01:53:05;102566.56;;;12.25;100.00
35151;BME280;55720;51.972;4.624;2022-07-10T01:55:31;102578.91;;;12.27;100.00
35151;BME280;55720;51.972;4.624;2022-07-10T01:57:56;102575.66;;;12.25;100.00
35151;BME280;55720;51.972;4.624;2022-07-10T02:00:22;102584.81;;;12.21;100.00
35151;BME280;55720;51.972;4.624;2022-07-10T02:02:49;102583.16;;;12.20;100.00
35151;BME280;55720;51.972;4.624;2022-07-10T02:05:34;102589.00;;;12.18;100.00
35151;BME280;55720;51.972;4.624;2022-07-10T02:08:00;102594.78;;;12.17;100.00
35151;BME280;55720;51.972;4.624;2022-07-10T02:10:28;102589.28;;;12.17;100.00
35151;BME280;55720;51.972;4.624;2022-07-10T02:12:54;102598.88;;;12.19;100.00
35151;BME280;55720;51.972;4.624;2022-07-10T02:15:19;102609.00;;;12.24;100.00
35151;BME280;55720;51.972;4.624;2022-07-10T02:17:44;102620.75;;;12.29;100.00
35151;BME280;55720;51.972;4.624;2022-07-10T02:20:10;102622.97;;;12.27;100.00
35151;BME280;55720;51.972;4.624;2022-07-10T02:22:36;102628.50;;;12.27;100.00
35151;BME280;55720;51.972;4.624;2022-07-10T02:25:01;102637.06;;;12.26;100.00
35151;BME280;55720;51.972;4.624;2022-07-10T02:27:26;102629.81;;;12.30;100.00
35151;BME280;55720;51.972;4.624;2022-07-10T02:29:52;102645.59;;;12.43;100.00
35151;BME280;55720;51.972;4.624;2022-07-10T02:32:18;102647.28;;;12.58;100.00
35151;BME280;55720;51.972;4.624;2022-07-10T02:34:43;102647.81;;;12.73;100.00
35151;BME280;55720;51.972;4.624;2022-07-10T02:37:09;102650.00;;;12.90;100.00
35151;BME280;55720;51.972;4.624;2022-07-10T02:39:34;102638.47;;;13.02;100.00
35151;BME280;55720;51.972;4.624;2022-07-10T02:42:00;102630.22;;;13.15;100.00
35151;BME280;55720;51.972;4.624;2022-07-10T02:44:25;102617.34;;;13.24;100.00
35151;BME280;55720;51.972;4.624;2022-07-10T02:46:51;102595.09;;;13.35;100.00
35151;BME280;55720;51.972;4.624;2022-07-10T02:49:16;102553.50;;;13.31;100.00
35151;BME280;55720;51.972;4.624;2022-07-10T02:51:41;102553.91;;;13.24;100.00
35151;BME280;55720;51.972;4.624;2022-07-10T02:54:07;102534.72;;;13.19;100.00
35151;BME280;55720;51.972;4.624;2022-07-10T02:56:33;102527.06;;;13.16;100.00
35151;BME280;55720;51.972;4.624;2022-07-10T02:58:58;102521.19;;;13.31;100.00
35151;BME280;55720;51.972;4.624;2022-07-10T03:01:24;102519.22;;;13.46;100.00
35151;BME280;55720;51.972;4.624;2022-07-10T03:03:49;102491.69;;;13.54;100.00
35151;BME280;55720;51.972;4.624;2022-07-10T03:06:14;102483.16;;;13.64;100.00
35151;BME280;55720;51.972;4.624;2022-07-10T03:08:40;102456.94;;;13.75;100.00
35151;BME280;55720;51.972;4.624;2022-07-10T03:11:06;102450.22;;;13.90;100.00
35151;BME280;55720;51.972;4.624;2022-07-10T03:13:32;102445.41;;;14.04;100.00
35151;BME280;55720;51.972;4.624;2022-07-10T03:15:57;102437.19;;;14.13;100.00
35151;BME280;55720;51.972;4.624;2022-07-10T03:18:23;102428.78;;;14.26;100.00
35151;BME280;55720;51.972;4.624;2022-07-10T03:20:48;102425.28;;;14.35;100.00
35151;BME280;55720;51.972;4.624;2022-07-10T03:23:14;102424.16;;;14.36;100.00
35151;BME280;55720;51.972;4.624;2022-07-10T03:25:39;102427.09;;;14.39;100.00
35151;BME280;55720;51.972;4.624;2022-07-10T03:28:05;102426.47;;;14.42;100.00
35151;BME280;55720;51.972;4.624;2022-07-10T03:30:30;102432.63;;;14.39;100.00
35151;BME280;55720;51.972;4.624;2022-07-10T03:32:55;102435.56;;;14.43;100.00
35151;BME280;55720;51.972;4.624;2022-07-10T03:35:21;102433.97;;;14.50;100.00
35151;BME280;55720;51.972;4.624;2022-07-10T03:37:46;102436.41;;;14.52;100.00
35151;BME280;55720;51.972;4.624;2022-07-10T03:40:12;102437.53;;;14.51;100.00
35151;BME280;55720;51.972;4.624;2022-07-10T03:42:37;102442.44;;;14.54;100.00
35151;BME280;55720;51.972;4.624;2022-07-10T03:45:03;102457.41;;;14.61;100.00
35151;BME280;55720;51.972;4.624;2022-07-10T03:47:28;102455.63;;;14.65;100.00
35151;BME280;55720;51.972;4.624;2022-07-10T03:49:54;102453.84;;;14.69;100.00
35151;BME280;55720;51.972;4.624;2022-07-10T03:52:20;102453.38;;;14.76;100.00
35151;BME280;55720;51.972;4.624;2022-07-10T03:54:45;102458.75;;;14.81;100.00
35151;BME280;55720;51.972;4.624;2022-07-10T03:57:10;102462.22;;;14.87;100.00
35151;BME280;55720;51.972;4.624;2022-07-10T03:59:54;102468.88;;;14.94;100.00
35151;BME280;55720;51.972;4.624;2022-07-10T04:02:19;102465.78;;;14.96;100.00
35151;BME280;55720;51.972;4.624;2022-07-10T04:04:45;102468.25;;;14.97;100.00
35151;BME280;55720;51.972;4.624;2022-07-10T04:07:10;102461.09;;;14.96;100.00
35151;BME280;55720;51.972;4.624;2022-07-10T04:09:37;102462.53;;;15.02;100.00
35151;BME280;55720;51.972;4.624;2022-07-10T04:12:03;102452.47;;;15.06;100.00
35151;BME280;55720;51.972;4.624;2022-07-10T04:14:29;102449.03;;;15.09;100.00
35151;BME280;55720;51.972;4.624;2022-07-10T04:16:54;102450.38;;;15.12;100.00
35151;BME280;55720;51.972;4.624;2022-07-10T04:19:19;102456.06;;;15.15;100.00
35151;BME280;55720;51.972;4.624;2022-07-10T04:21:47;102449.06;;;15.18;100.00
35151;BME280;55720;51.972;4.624;2022-07-10T04:24:12;102462.56;;;15.19;100.00
35151;BME280;55720;51.972;4.624;2022-07-10T04:26:37;102458.84;;;15.33;100.00
35151;BME280;55720;51.972;4.624;2022-07-10T04:29:03;102464.19;;;15.38;100.00
35151;BME280;55720;51.972;4.624;2022-07-10T04:31:28;102466.34;;;15.41;100.00
35151;BME280;55720;51.972;4.624;2022-07-10T04:33:53;102463.28;;;15.51;100.00
35151;BME280;55720;51.972;4.624;2022-07-10T04:36:20;102460.00;;;15.57;100.00
35151;BME280;55720;51.972;4.624;2022-07-10T04:38:46;102475.47;;;15.67;100.00
35151;BME280;55720;51.972;4.624;2022-07-10T04:41:11;102474.16;;;15.73;100.00
35151;BME280;55720;51.972;4.624;2022-07-10T04:43:36;102485.72;;;15.75;100.00
35151;BME280;55720;51.972;4.624;2022-07-10T04:46:02;102489.63;;;15.74;100.00
35151;BME280;55720;51.972;4.624;2022-07-10T04:48:27;102489.16;;;15.72;100.00
35151;BME280;55720;51.972;4.624;2022-07-10T04:50:53;102493.38;;;15.78;100.00
35151;BME280;55720;51.972;4.624;2022-07-10T04:53:18;102491.56;;;15.82;100.00
35151;BME280;55720;51.972;4.624;2022-07-10T04:55:44;102501.84;;;15.90;100.00
35151;BME280;55720;51.972;4.624;2022-07-10T04:58:09;102498.72;;;15.92;100.00
35151;BME280;55720;51.972;4.624;2022-07-10T05:00:34;102492.19;;;15.96;100.00
35151;BME280;55720;51.972;4.624;2022-07-10T05:03:00;102488.75;;;15.99;100.00
35151;BME280;55720;51.972;4.624;2022-07-10T05:05:25;102491.22;;;16.09;100.00
35151;BME280;55720;51.972;4.624;2022-07-10T05:07:50;102487.59;;;16.17;100.00
35151;BME280;55720;51.972;4.624;2022-07-10T05:10:16;102489.53;;;16.17;100.00
35151;BME280;55720;51.972;4.624;2022-07-10T05:12:41;102500.59;;;16.25;100.00
35151;BME280;55720;51.972;4.624;2022-07-10T05:15:07;102499.13;;;16.28;100.00
35151;BME280;55720;51.972;4.624;2022-07-10T05:17:33;102500.09;;;16.32;100.00
35151;BME280;55720;51.972;4.624;2022-07-10T05:19:58;102502.56;;;16.34;100.00
35151;BME280;55720;51.972;4.624;2022-07-10T05:22:24;102504.66;;;16.37;100.00
35151;BME280;55720;51.972;4.624;2022-07-10T05:24:50;102513.44;;;16.56;100.00
35151;BME280;55720;51.972;4.624;2022-07-10T05:27:15;102509.78;;;16.64;100.00
35151;BME280;55720;51.972;4.624;2022-07-10T05:29:46;102506.44;;;16.79;100.00
35151;BME280;55720;51.972;4.624;2022-07-10T05:32:11;102497.41;;;16.91;100.00
35151;BME280;55720;51.972;4.624;2022-07-10T05:34:37;102501.84;;;16.92;100.00
35151;BME280;55720;51.972;4.624;2022-07-10T05:37:02;102499.03;;;17.21;100.00
35151;BME280;55720;51.972;4.624;2022-07-10T05:39:28;102504.53;;;17.50;100.00
35151;BME280;55720;51.972;4.624;2022-07-10T05:41:53;102514.69;;;17.67;100.00
35151;BME280;55720;51.972;4.624;2022-07-10T05:44:21;102518.13;;;17.85;100.00
35151;BME280;55720;51.972;4.624;2022-07-10T05:46:46;102514.47;;;17.93;100.00
35151;BME280;55720;51.972;4.624;2022-07-10T05:49:12;102521.91;;;18.01;100.00
35151;BME280;55720;51.972;4.624;2022-07-10T05:51:37;102520.72;;;18.23;100.00
35151;BME280;55720;51.972;4.624;2022-07-10T05:54:03;102520.41;;;18.48;100.00
35151;BME280;55720;51.972;4.624;2022-07-10T05:56:28;102519.19;;;18.94;100.00
35151;BME280;55720;51.972;4.624;2022-07-10T05:58:54;102535.66;;;19.11;100.00
35151;BME280;55720;51.972;4.624;2022-07-10T06:01:21;102535.19;;;19.74;100.00
35151;BME280;55720;51.972;4.624;2022-07-10T06:03:46;102554.91;;;19.81;100.00
35151;BME280;55720;51.972;4.624;2022-07-10T06:06:12;102569.94;;;19.64;100.00
35151;BME280;55720;51.972;4.624;2022-07-10T06:08:40;102583.09;;;19.51;100.00
35151;BME280;55720;51.972;4.624;2022-07-10T06:11:06;102582.94;;;19.36;100.00
35151;BME280;55720;51.972;4.624;2022-07-10T06:13:31;102585.72;;;19.36;100.00
35151;BME280;55720;51.972;4.624;2022-07-10T06:15:56;102599.06;;;18.82;100.00
35151;BME280;55720;51.972;4.624;2022-07-10T06:18:22;102600.44;;;18.63;100.00
35151;BME280;55720;51.972;4.624;2022-07-10T06:20:47;102609.31;;;18.45;100.00
35151;BME280;55720;51.972;4.624;2022-07-10T06:23:12;102609.84;;;18.71;100.00
35151;BME280;55720;51.972;4.624;2022-07-10T06:25:38;102603.56;;;18.62;100.00
35151;BME280;55720;51.972;4.624;2022-07-10T06:28:03;102608.31;;;18.61;100.00
35151;BME280;55720;51.972;4.624;2022-07-10T06:30:28;102597.25;;;19.22;100.00
35151;BME280;55720;51.972;4.624;2022-07-10T06:32:54;102595.69;;;19.73;100.00
35151;BME280;55720;51.972;4.624;2022-07-10T06:35:19;102606.03;;;20.40;100.00
35151;BME280;55720;51.972;4.624;2022-07-10T06:37:44;102622.38;;;20.54;100.00
35151;BME280;55720;51.972;4.624;2022-07-10T06:40:13;102640.50;;;21.07;100.00
35151;BME280;55720;51.972;4.624;2022-07-10T06:42:39;102661.09;;;21.15;100.00
35151;BME280;55720;51.972;4.624;2022-07-10T06:45:05;102712.88;;;21.28;100.00
35151;BME280;55720;51.972;4.624;2022-07-10T06:47:31;102748.53;;;22.13;100.00
35151;BME280;55720;51.972;4.624;2022-07-10T06:50:15;102779.69;;;22.84;100.00
35151;BME280;55720;51.972;4.624;2022-07-10T06:52:40;102817.06;;;22.73;100.00
35151;BME280;55720;51.972;4.624;2022-07-10T06:55:06;102840.72;;;23.14;100.00
35151;BME280;55720;51.972;4.624;2022-07-10T06:57:31;102870.00;;;22.97;100.00
35151;BME280;55720;51.972;4.624;2022-07-10T06:59:57;102883.66;;;22.13;100.00
35151;BME280;55720;51.972;4.624;2022-07-10T07:02:22;102879.91;;;21.62;100.00
35151;BME280;55720;51.972;4.624;2022-07-10T07:04:48;102881.06;;;21.61;100.00
35151;BME280;55720;51.972;4.624;2022-07-10T07:07:14;102890.66;;;21.32;100.00
35151;BME280;55720;51.972;4.624;2022-07-10T07:09:40;102888.34;;;20.94;100.00
35151;BME280;55720;51.972;4.624;2022-07-10T07:12:06;102896.34;;;20.96;100.00
35151;BME280;55720;51.972;4.624;2022-07-10T07:14:32;102894.69;;;20.31;100.00
35151;BME280;55720;51.972;4.624;2022-07-10T07:16:57;102893.53;;;20.32;100.00
35151;BME280;55720;51.972;4.624;2022-07-10T07:19:26;102877.59;;;20.20;100.00
35151;BME280;55720;51.972;4.624;2022-07-10T07:22:00;102869.66;;;20.58;100.00
35151;BME280;55720;51.972;4.624;2022-07-10T07:24:45;102882.34;;;21.08;100.00
35151;BME280;55720;51.972;4.624;2022-07-10T07:27:11;102897.56;;;20.58;100.00
35151;BME280;55720;51.972;4.624;2022-07-10T07:29:37;102891.44;;;21.05;100.00
35151;BME280;55720;51.972;4.624;2022-07-10T07:32:03;102901.50;;;20.82;100.00
35151;BME280;55720;51.972;4.624;2022-07-10T07:34:28;102899.97;;;20.84;100.00
35151;BME280;55720;51.972;4.624;2022-07-10T07:36:54;102906.63;;;20.80;100.00
35151;BME280;55720;51.972;4.624;2022-07-10T07:39:19;102905.75;;;21.03;100.00
35151;BME280;55720;51.972;4.624;2022-07-10T07:41:44;102908.88;;;21.42;100.00
35151;BME280;55720;51.972;4.624;2022-07-10T07:44:10;102913.44;;;22.05;100.00
35151;BME280;55720;51.972;4.624;2022-07-10T07:46:37;102931.81;;;21.91;100.00
35151;BME280;55720;51.972;4.624;2022-07-10T07:49:02;102934.38;;;21.68;100.00
35151;BME280;55720;51.972;4.624;2022-07-10T07:51:28;102937.44;;;21.35;100.00
35151;BME280;55720;51.972;4.624;2022-07-10T07:53:53;102939.81;;;21.09;100.00
35151;BME280;55720;51.972;4.624;2022-07-10T07:56:18;102950.97;;;21.33;100.00
35151;BME280;55720;51.972;4.624;2022-07-10T07:58:44;102958.91;;;21.75;100.00
35151;BME280;55720;51.972;4.624;2022-07-10T08:01:09;102953.16;;;21.40;100.00
35151;BME280;55720;51.972;4.624;2022-07-10T08:03:34;102961.84;;;20.98;100.00
35151;BME280;55720;51.972;4.624;2022-07-10T08:06:00;102960.50;;;20.32;100.00
35151;BME280;55720;51.972;4.624;2022-07-10T08:08:26;102955.41;;;20.58;100.00
35151;BME280;55720;51.972;4.624;2022-07-10T08:10:51;102953.47;;;20.98;100.00
35151;BME280;55720;51.972;4.624;2022-07-10T08:13:17;102956.63;;;20.97;100.00
35151;BME280;55720;51.972;4.624;2022-07-10T08:15:42;102959.38;;;21.21;100.00
35151;BME280;55720;51.972;4.624;2022-07-10T08:18:08;102959.13;;;21.54;100.00
35151;BME280;55720;51.972;4.624;2022-07-10T08:20:33;102965.53;;;21.27;100.00
35151;BME280;55720;51.972;4.624;2022-07-10T08:22:58;102960.31;;;21.13;100.00
35151;BME280;55720;51.972;4.624;2022-07-10T08:25:24;102964.53;;;21.47;100.00
35151;BME280;55720;51.972;4.624;2022-07-10T08:27:50;102967.16;;;21.83;100.00
35151;BME280;55720;51.972;4.624;2022-07-10T08:30:15;102961.84;;;22.88;100.00
35151;BME280;55720;51.972;4.624;2022-07-10T08:32:41;102957.16;;;24.11;100.00
35151;BME280;55720;51.972;4.624;2022-07-10T08:35:07;102962.97;;;24.44;100.00
35151;BME280;55720;51.972;4.624;2022-07-10T08:37:40;102961.59;;;24.12;100.00
35151;BME280;55720;51.972;4.624;2022-07-10T08:40:09;102972.22;;;23.22;100.00
35151;BME280;55720;51.972;4.624;2022-07-10T08:42:35;102975.81;;;23.23;100.00
35151;BME280;55720;51.972;4.624;2022-07-10T08:45:01;102975.69;;;23.35;100.00
35151;BME280;55720;51.972;4.624;2022-07-10T08:47:26;102968.38;;;23.30;100.00
35151;BME280;55720;51.972;4.624;2022-07-10T08:49:56;102963.19;;;23.90;100.00
35151;BME280;55720;51.972;4.624;2022-07-10T08:52:27;102954.34;;;24.56;100.00
35151;BME280;55720;51.972;4.624;2022-07-10T08:54:56;102960.88;;;23.73;100.00
35151;BME280;55720;51.972;4.624;2022-07-10T08:57:22;102946.25;;;24.28;100.00
35151;BME280;55720;51.972;4.624;2022-07-10T08:59:48;102936.13;;;24.24;100.00
35151;BME280;55720;51.972;4.624;2022-07-10T09:02:13;102946.53;;;24.20;100.00
35151;BME280;55720;51.972;4.624;2022-07-10T09:04:39;102942.91;;;24.19;100.00
35151;BME280;55720;51.972;4.624;2022-07-10T09:07:04;102940.56;;;24.25;100.00
35151;BME280;55720;51.972;4.624;2022-07-10T09:09:30;102942.81;;;24.65;100.00
35151;BME280;55720;51.972;4.624;2022-07-10T09:11:57;102940.28;;;25.09;100.00
35151;BME280;55720;51.972;4.624;2022-07-10T09:14:23;102939.97;;;24.61;100.00
35151;BME280;55720;51.972;4.624;2022-07-10T09:16:51;102925.22;;;25.24;100.00
35151;BME280;55720;51.972;4.624;2022-07-10T09:19:26;102913.63;;;25.62;100.00
35151;BME280;55720;51.972;4.624;2022-07-10T09:24:18;102918.31;;;25.51;100.00
35151;BME280;55720;51.972;4.624;2022-07-10T09:27:00;102905.06;;;25.92;100.00
35151;BME280;55720;51.972;4.624;2022-07-10T09:29:26;102903.31;;;25.77;100.00
35151;BME280;55720;51.972;4.624;2022-07-10T09:31:53;102898.28;;;25.56;100.00
35151;BME280;55720;51.972;4.624;2022-07-10T09:34:38;102894.44;;;26.15;100.00
35151;BME280;55720;51.972;4.624;2022-07-10T09:40:10;102908.16;;;25.80;100.00
35151;BME280;55720;51.972;4.624;2022-07-10T09:42:40;102896.81;;;25.69;100.00
35151;BME280;55720;51.972;4.624;2022-07-10T09:47:37;102914.03;;;24.97;100.00
35151;BME280;55720;51.972;4.624;2022-07-10T09:50:03;102913.91;;;24.64;100.00
35151;BME280;55720;51.972;4.624;2022-07-10T09:52:29;102919.13;;;24.62;100.00
35151;BME280;55720;51.972;4.624;2022-07-10T09:54:55;102914.41;;;25.29;100.00
35151;BME280;55720;51.972;4.624;2022-07-10T09:57:23;102899.59;;;26.64;100.00
35151;BME280;55720;51.972;4.624;2022-07-10T09:59:51;102870.69;;;26.74;100.00
35151;BME280;55720;51.972;4.624;2022-07-10T10:02:18;102872.81;;;26.95;100.00
35151;BME280;55720;51.972;4.624;2022-07-10T10:04:45;102880.16;;;27.21;100.00
35151;BME280;55720;51.972;4.624;2022-07-10T10:07:11;102882.19;;;26.48;100.00
35151;BME280;55720;51.972;4.624;2022-07-10T10:09:49;102864.81;;;27.11;100.00
35151;BME280;55720;51.972;4.624;2022-07-10T10:12:31;102858.13;;;27.79;100.00
35151;BME280;55720;51.972;4.624;2022-07-10T10:14:57;102860.38;;;26.34;100.00
35151;BME280;55720;51.972;4.624;2022-07-10T10:17:25;102861.16;;;27.00;100.00
35151;BME280;55720;51.972;4.624;2022-07-10T10:19:54;102867.88;;;26.81;100.00
35151;BME280;55720;51.972;4.624;2022-07-10T10:22:43;102867.00;;;26.63;100.00
35151;BME280;55720;51.972;4.624;2022-07-10T10:25:09;102856.44;;;27.39;100.00
35151;BME280;55720;51.972;4.624;2022-07-10T10:27:35;102837.56;;;27.86;100.00
35151;BME280;55720;51.972;4.624;2022-07-10T10:30:01;102842.75;;;27.34;100.00
35151;BME280;55720;51.972;4.624;2022-07-10T10:32:27;102848.31;;;27.17;100.00
35151;BME280;55720;51.972;4.624;2022-07-10T10:34:53;102856.38;;;27.11;100.00
35151;BME280;55720;51.972;4.624;2022-07-10T10:37:36;102845.97;;;27.40;100.00
35151;BME280;55720;51.972;4.624;2022-07-10T10:40:02;102848.03;;;27.68;100.00
35151;BME280;55720;51.972;4.624;2022-07-10T10:42:43;102859.97;;;27.01;100.00
35151;BME280;55720;51.972;4.624;2022-07-10T10:45:31;102858.31;;;26.93;100.00
35151;BME280;55720;51.972;4.624;2022-07-10T10:48:08;102859.94;;;26.94;100.00
35151;BME280;55720;51.972;4.624;2022-07-10T10:50:51;102856.56;;;26.71;100.00
35151;BME280;55720;51.972;4.624;2022-07-10T10:58:25;102875.75;;;26.44;100.00
35151;BME280;55720;51.972;4.624;2022-07-10T11:00:50;102874.88;;;26.33;100.00
35151;BME280;55720;51.972;4.624;2022-07-10T11:03:21;102868.25;;;26.69;100.00
35151;BME280;55720;51.972;4.624;2022-07-10T11:05:48;102853.94;;;27.17;100.00
35151;BME280;55720;51.972;4.624;2022-07-10T11:08:16;102853.50;;;27.01;100.00
35151;BME280;55720;51.972;4.624;2022-07-10T11:10:59;102856.25;;;26.83;100.00
35151;BME280;55720;51.972;4.624;2022-07-10T11:13:27;102856.53;;;26.67;100.00
35151;BME280;55720;51.972;4.624;2022-07-10T11:15:54;102856.72;;;27.03;100.00
35151;BME280;55720;51.972;4.624;2022-07-10T11:18:21;102842.09;;;26.72;100.00
35151;BME280;55720;51.972;4.624;2022-07-10T11:20:53;102857.88;;;26.19;100.00
35151;BME280;55720;51.972;4.624;2022-07-10T11:26:34;102851.53;;;25.85;100.00
35151;BME280;55720;51.972;4.624;2022-07-10T11:29:03;102861.22;;;25.51;100.00
35151;BME280;55720;51.972;4.624;2022-07-10T11:31:30;102852.06;;;26.05;100.00
35151;BME280;55720;51.972;4.624;2022-07-10T11:33:59;102847.91;;;26.35;100.00
35151;BME280;55720;51.972;4.624;2022-07-10T11:36:26;102835.97;;;26.02;100.00
35151;BME280;55720;51.972;4.624;2022-07-10T11:39:05;102838.28;;;26.36;100.00
35151;BME280;55720;51.972;4.624;2022-07-10T11:41:31;102825.75;;;25.79;100.00
35151;BME280;55720;51.972;4.624;2022-07-10T11:43:58;102838.00;;;26.66;100.00
35151;BME280;55720;51.972;4.624;2022-07-10T11:46:34;102821.94;;;26.74;100.00
35151;BME280;55720;51.972;4.624;2022-07-10T11:49:04;102810.06;;;27.16;97.19
35151;BME280;55720;51.972;4.624;2022-07-10T11:51:32;102805.41;;;26.62;97.21
35151;BME280;55720;51.972;4.624;2022-07-10T11:54:12;102817.03;;;26.57;100.00
35151;BME280;55720;51.972;4.624;2022-07-10T11:56:39;102817.53;;;26.73;100.00
35151;BME280;55720;51.972;4.624;2022-07-10T12:01:34;102810.84;;;27.09;98.96
35151;BME280;55720;51.972;4.624;2022-07-10T12:04:04;102801.94;;;26.93;92.70
35151;BME280;55720;51.972;4.624;2022-07-10T12:06:34;102810.69;;;26.77;97.82
35151;BME280;55720;51.972;4.624;2022-07-10T12:09:07;102816.13;;;26.35;93.81
35151;BME280;55720;51.972;4.624;2022-07-10T12:11:33;102804.84;;;26.35;94.76
35151;BME280;55720;51.972;4.624;2022-07-10T12:14:16;102812.31;;;26.10;95.99
35151;BME280;55720;51.972;4.624;2022-07-10T12:16:49;102810.22;;;26.61;98.65
35151;BME280;55720;51.972;4.624;2022-07-10T12:19:17;102802.81;;;27.18;90.04
35151;BME280;55720;51.972;4.624;2022-07-10T12:21:45;102803.28;;;26.41;85.14
35151;BME280;55720;51.972;4.624;2022-07-10T12:24:11;102809.84;;;26.70;93.23
35151;BME280;55720;51.972;4.624;2022-07-10T12:26:39;102801.94;;;26.97;88.56
35151;BME280;55720;51.972;4.624;2022-07-10T12:29:05;102806.84;;;27.28;90.32
35151;BME280;55720;51.972;4.624;2022-07-10T12:31:33;102777.09;;;27.48;83.42
35151;BME280;55720;51.972;4.624;2022-07-10T12:34:03;102799.91;;;26.94;86.31
35151;BME280;55720;51.972;4.624;2022-07-10T12:39:06;102804.16;;;26.59;88.87
35151;BME280;55720;51.972;4.624;2022-07-10T12:41:32;102787.47;;;27.05;86.01
35151;BME280;55720;51.972;4.624;2022-07-10T12:43:57;102776.28;;;27.55;81.77
35151;BME280;55720;51.972;4.624;2022-07-10T12:46:23;102789.16;;;26.34;83.06
35151;BME280;55720;51.972;4.624;2022-07-10T12:49:09;102797.09;;;26.94;88.46
35151;BME280;55720;51.972;4.624;2022-07-10T12:51:44;102801.94;;;26.93;90.87
35151;BME280;55720;51.972;4.624;2022-07-10T12:56:58;102796.22;;;26.07;88.99
35151;BME280;55720;51.972;4.624;2022-07-10T12:59:24;102795.69;;;26.52;94.73
35151;BME280;55720;51.972;4.624;2022-07-10T13:01:49;102788.53;;;26.65;93.11
35151;BME280;55720;51.972;4.624;2022-07-10T13:04:25;102795.47;;;26.85;92.49
35151;BME280;55720;51.972;4.624;2022-07-10T13:06:52;102795.41;;;26.82;95.70